Main page
METAR-TAF:

METAR-TAF

Airports :

Sikeston Memorial Municipal Airport

Sikeston, Missouri, United States

latitude: 36-53-56N, longitude: 089-33-42W, elevation: 315 ft

Current weather observation

The report was made 35 minutes ago, at 22:35 UTC
Calm wind
Temperature 55°F
Humidity 88%
Pressure 29.84 in. Hg
Visibility: 10 miles
Clear sky

METAR: KSIK 012235Z AUTO 00000KT 10SM CLR 13/11 A2984 RMK AO2 P0001

Time: 17:10 (23:10 UTC)


TAF: missing

Weather observations and forecasts of more than 4000 airports (METAR and TAF reports).

The available stations are represented by yellow and red dots on the map.

Hover mouse over dot to see the name of the station.

Then click to see weather observations and forecasts.

To change the map : click on the green buttons with a black cross to zoom in, on the green button with a dash to zoom out, or on the green arrows for adjacent maps.


METAR-TAF: